createdAt,value
2023-04-25T00:00:43.000Z,6.7
2023-04-25T00:01:59.000Z,6.9
2023-04-25T00:03:15.000Z,6.4
2023-04-25T00:04:31.000Z,5.8
2023-04-25T00:05:47.000Z,7.4
2023-04-25T00:07:03.000Z,6.7
2023-04-25T00:08:18.000Z,7.2
2023-04-25T00:09:35.000Z,7.3
2023-04-25T00:10:51.000Z,8
2023-04-25T00:12:07.000Z,7.5
2023-04-25T00:13:23.000Z,7.1
2023-04-25T00:14:39.000Z,7
2023-04-25T00:15:55.000Z,7.5
2023-04-25T00:17:10.000Z,6.3
2023-04-25T00:18:26.329Z,6.9
2023-04-25T00:19:42.000Z,5.8
2023-04-25T00:20:57.000Z,6.6
2023-04-25T00:22:12.000Z,5.8
2023-04-25T00:23:28.000Z,6.5
2023-04-25T00:24:44.000Z,7
2023-04-25T00:26:01.000Z,6.5
2023-04-25T00:27:17.000Z,6.9
2023-04-25T00:28:33.000Z,6.3
2023-04-25T00:29:49.682Z,7
2023-04-25T00:31:05.000Z,6.4
2023-04-25T00:32:21.000Z,6.3
2023-04-25T00:33:37.000Z,5.8
2023-04-25T00:34:54.000Z,6.4
2023-04-25T00:36:10.000Z,6.5
2023-04-25T00:37:26.000Z,6.1
2023-04-25T00:38:41.000Z,7.2
2023-04-25T00:39:57.000Z,6.5
2023-04-25T00:41:13.000Z,5.7
2023-04-25T00:42:29.000Z,5.6
2023-04-25T00:43:46.000Z,6
2023-04-25T00:45:02.000Z,5.6
2023-04-25T00:46:18.000Z,5
2023-04-25T00:47:33.000Z,6
2023-04-25T00:48:48.917Z,5.8
2023-04-25T00:50:03.000Z,5.8
2023-04-25T00:51:19.000Z,6.3
2023-04-25T00:52:35.000Z,5.9
2023-04-25T00:55:07.000Z,5.7
2023-04-25T00:56:23.000Z,5.4
2023-04-25T00:57:39.000Z,5.1
2023-04-25T00:58:55.000Z,5.8
2023-04-25T01:00:12.000Z,4.5
2023-04-25T01:01:28.000Z,6.3
2023-04-25T01:02:44.561Z,6.2
2023-04-25T01:05:16.000Z,4.9
2023-04-25T01:06:31.000Z,5.6
2023-04-25T01:07:46.000Z,6
2023-04-25T01:09:03.000Z,5.7
2023-04-25T01:10:19.468Z,4.7
2023-04-25T01:11:35.000Z,6.4
2023-04-25T01:12:51.000Z,5.8
2023-04-25T01:14:07.000Z,6.2
2023-04-25T01:15:23.000Z,5.6
2023-04-25T01:16:39.000Z,4.9
2023-04-25T01:17:56.000Z,5.7
2023-04-25T01:19:12.487Z,5.3
2023-04-25T01:20:27.000Z,5.8
2023-04-25T01:21:42.000Z,6.1
2023-04-25T01:22:58.000Z,5.6
2023-04-25T01:24:15.107Z,6.4
2023-04-25T01:25:31.000Z,5.7
2023-04-25T01:26:47.400Z,5.9
2023-04-25T01:28:03.000Z,5.9
2023-04-25T01:29:19.000Z,6.8
2023-04-25T01:30:35.000Z,6.1
2023-04-25T01:31:51.000Z,6.8
2023-04-25T01:33:07.000Z,6.8
2023-04-25T01:34:24.000Z,7
2023-04-25T01:35:40.413Z,6.4
2023-04-25T01:36:56.547Z,5.5
2023-04-25T01:38:11.000Z,4.9
2023-04-25T01:39:27.000Z,5.6
2023-04-25T01:40:43.000Z,5.4
2023-04-25T01:41:59.000Z,6.7
2023-04-25T01:43:16.000Z,6
2023-04-25T01:44:32.424Z,6.6
2023-04-25T01:45:48.000Z,7.1
2023-04-25T01:47:03.000Z,6.8
2023-04-25T01:48:18.000Z,6.3
2023-04-25T01:49:34.000Z,6.4
2023-04-25T01:50:50.000Z,6.8
2023-04-25T01:52:06.000Z,6.1
2023-04-25T01:53:21.516Z,5.8
2023-04-25T01:54:37.000Z,5.8
2023-04-25T01:55:53.000Z,6.7
2023-04-25T01:57:09.000Z,6.7
2023-04-25T01:58:26.094Z,7.2
2023-04-25T01:59:42.000Z,7.1
2023-04-25T02:00:58.000Z,6.8
2023-04-25T02:03:30.666Z,6.2
2023-04-25T02:04:46.000Z,6.1
2023-04-25T02:06:02.957Z,6.4
2023-04-25T02:07:18.000Z,6.9
2023-04-25T02:08:35.244Z,7.4
2023-04-25T02:09:50.400Z,7.2
2023-04-25T02:11:06.548Z,5.9
2023-04-25T02:12:22.000Z,6.4
2023-04-25T02:13:38.000Z,6.7
2023-04-25T02:14:54.000Z,7
2023-04-25T02:16:10.000Z,6.1
2023-04-25T02:17:27.000Z,5.9
2023-04-25T02:18:43.000Z,6.5
2023-04-25T02:19:58.000Z,6.6
2023-04-25T02:21:13.000Z,6.6
2023-04-25T02:22:29.000Z,7.4
2023-04-25T02:23:45.000Z,6.4
2023-04-25T02:25:01.000Z,6.3
2023-04-25T02:26:18.000Z,6.2
2023-04-25T02:27:34.000Z,5.2
2023-04-25T02:28:50.000Z,5.6
2023-04-25T02:30:06.743Z,5.4
2023-04-25T02:31:22.000Z,6.2
2023-04-25T02:32:38.000Z,5.7
2023-04-25T02:33:54.000Z,5.1
2023-04-25T02:35:11.000Z,5.4
2023-04-25T02:36:27.000Z,6.2
2023-04-25T02:37:42.000Z,6.7
2023-04-25T02:38:58.000Z,5.1
2023-04-25T02:40:14.000Z,4.3
2023-04-25T02:41:31.048Z,5
2023-04-25T02:42:46.000Z,5.4
2023-04-25T02:44:03.000Z,5.1
2023-04-25T02:45:19.000Z,6.2
2023-04-25T02:46:34.000Z,5.4
2023-04-25T02:47:49.000Z,5.9
2023-04-25T02:49:05.000Z,5.9
2023-04-25T02:50:21.000Z,7.3
2023-04-25T02:51:38.000Z,6.1
2023-04-25T02:52:54.000Z,7.1
2023-04-25T02:54:10.000Z,6.1
2023-04-25T02:55:26.000Z,6.8
2023-04-25T02:56:42.000Z,6.2
2023-04-25T02:57:58.000Z,6.7
2023-04-25T02:59:15.103Z,5.7
2023-04-25T03:00:31.000Z,6.4
2023-04-25T03:01:47.396Z,6.3
2023-04-25T03:03:03.000Z,5.9
2023-04-25T03:04:18.000Z,7.9
2023-04-25T03:05:34.000Z,6.5
2023-04-25T03:06:50.000Z,5.6
2023-04-25T03:08:07.122Z,6.9
2023-04-25T03:09:23.000Z,5.6
2023-04-25T03:10:39.000Z,5.8
2023-04-25T03:11:55.000Z,5.9
2023-04-25T03:13:10.000Z,5.6
2023-04-25T03:14:25.000Z,6.2
2023-04-25T03:15:40.000Z,4.9
2023-04-25T03:16:55.000Z,6.3
2023-04-25T03:18:11.000Z,5.7
2023-04-25T03:19:26.000Z,6.4
2023-04-25T03:20:42.000Z,6.4
2023-04-25T03:21:58.000Z,5.7
2023-04-25T03:23:14.000Z,5.4
2023-04-25T03:24:30.000Z,5.9
2023-04-25T03:25:47.270Z,5.8
2023-04-25T03:27:03.000Z,5.5
2023-04-25T03:28:19.325Z,5
2023-04-25T03:29:34.000Z,5.3
2023-04-25T03:30:49.877Z,4.9
2023-04-25T03:32:05.000Z,5.4
2023-04-25T03:33:20.000Z,5.5
2023-04-25T03:34:36.000Z,5.1
2023-04-25T03:35:52.000Z,5.1
2023-04-25T03:37:08.000Z,4.9
2023-04-25T03:38:23.000Z,5.4
2023-04-25T03:39:38.971Z,5.1
2023-04-25T03:40:53.000Z,5.4
2023-04-25T03:42:09.000Z,4.7
2023-04-25T03:43:25.000Z,4.8
2023-04-25T03:44:41.000Z,5.3
2023-04-25T03:45:57.000Z,5.1
2023-04-25T03:47:13.878Z,4.7
2023-04-25T03:48:29.000Z,4.4
2023-04-25T03:49:45.000Z,5.9
2023-04-25T03:51:02.000Z,5.2
2023-04-25T03:52:18.000Z,6
2023-04-25T03:53:34.000Z,5.8
2023-04-25T03:54:50.000Z,6
2023-04-25T03:56:06.000Z,4.5
2023-04-25T03:57:22.000Z,4.6
2023-04-25T03:59:54.000Z,5
2023-04-25T04:01:10.000Z,6.1
2023-04-25T04:02:26.000Z,5.2
2023-04-25T04:03:42.000Z,4.3
2023-04-25T04:04:58.000Z,5.5
2023-04-25T04:06:13.000Z,5
2023-04-25T04:07:29.000Z,5.7
2023-04-25T04:08:45.000Z,4.7
2023-04-25T04:10:00.555Z,4.7
2023-04-25T04:11:15.000Z,4.6
2023-04-25T04:13:46.000Z,6
2023-04-25T04:15:02.000Z,4.2
2023-04-25T04:16:19.310Z,4.9
2023-04-25T04:17:35.000Z,5.7
2023-04-25T04:18:51.000Z,4.9
2023-04-25T04:20:07.000Z,4.4
2023-04-25T04:21:23.000Z,4.8
2023-04-25T04:22:40.028Z,5.3
2023-04-25T04:23:55.000Z,5.3
2023-04-25T04:25:12.314Z,4.8
2023-04-25T04:26:28.000Z,4.2
2023-04-25T04:27:44.605Z,5.6
2023-04-25T04:28:59.000Z,5
2023-04-25T04:30:15.000Z,5.1
2023-04-25T04:31:32.050Z,5.7
2023-04-25T04:32:47.000Z,4.7
2023-04-25T04:34:04.000Z,4.4
2023-04-25T04:35:20.000Z,5.3
2023-04-25T04:36:36.000Z,4.4
2023-04-25T04:37:52.000Z,4.4
2023-04-25T04:39:07.000Z,5.3
2023-04-25T04:40:22.000Z,5.7
2023-04-25T04:41:38.000Z,5.6
2023-04-25T04:42:53.000Z,5
2023-04-25T04:44:09.000Z,5.4
2023-04-25T04:45:25.000Z,5
2023-04-25T04:46:41.000Z,5.2
2023-04-25T04:47:57.000Z,5.3
2023-04-25T04:49:14.148Z,4.7
2023-04-25T04:50:30.000Z,4.7
2023-04-25T04:51:46.000Z,5
2023-04-25T04:53:02.000Z,5
2023-04-25T04:54:18.000Z,5.4
2023-04-25T04:55:34.000Z,5.4
2023-04-25T04:58:06.000Z,5.2
2023-04-25T04:59:22.000Z,4.9
2023-04-25T05:00:38.460Z,4.6
2023-04-25T05:01:54.000Z,5
2023-04-25T05:03:10.000Z,4.9
2023-04-25T05:04:26.000Z,4.7
2023-04-25T05:05:42.000Z,4.8
2023-04-25T05:06:58.000Z,5.7
2023-04-25T05:08:15.000Z,4.7
2023-04-25T05:09:30.496Z,5
2023-04-25T05:10:45.000Z,5.4
2023-04-25T05:12:01.789Z,5.8
2023-04-25T05:13:16.000Z,4.8
2023-04-25T05:14:32.127Z,4.5
2023-04-25T05:15:48.000Z,4.5
2023-04-25T05:17:04.000Z,4.9
2023-04-25T05:18:20.000Z,4.8
2023-04-25T05:19:36.000Z,4.2
2023-04-25T05:20:52.000Z,4.7
2023-04-25T05:22:08.000Z,4.6
2023-04-25T05:23:24.000Z,4.1
2023-04-25T05:24:41.000Z,4.7
2023-04-25T05:25:57.000Z,5.4
2023-04-25T05:27:13.564Z,3.9
2023-04-25T05:28:29.000Z,4.7
2023-04-25T05:29:45.000Z,4.7
2023-04-25T05:31:00.000Z,5.1
2023-04-25T05:32:16.000Z,5
2023-04-25T05:34:49.000Z,4.7
2023-04-25T05:36:05.000Z,4.5
2023-04-25T05:37:21.000Z,4.6
2023-04-25T05:38:37.000Z,5
2023-04-25T05:39:53.000Z,5.4
2023-04-25T05:41:08.000Z,4.5
2023-04-25T05:42:24.000Z,4.4
2023-04-25T05:43:40.000Z,4.6
2023-04-25T05:44:55.663Z,4.3
2023-04-25T05:46:10.000Z,5.2
2023-04-25T05:47:26.000Z,5.2
2023-04-25T05:48:42.000Z,5.7
2023-04-25T05:51:15.000Z,4.5
2023-04-25T05:52:31.000Z,4.2
2023-04-25T05:53:47.000Z,4.4
2023-04-25T05:55:03.000Z,4.7
2023-04-25T05:56:19.000Z,4.7
2023-04-25T05:57:36.114Z,4.3
2023-04-25T05:58:52.000Z,5.3
2023-04-25T06:00:08.000Z,4.9
2023-04-25T06:01:24.000Z,5.2
2023-04-25T06:02:39.000Z,5.6
2023-04-25T06:03:55.000Z,4.9
2023-04-25T06:05:11.000Z,4.9
2023-04-25T06:06:27.000Z,5
2023-04-25T06:07:44.000Z,4.5
2023-04-25T06:09:00.000Z,5.7
2023-04-25T06:10:16.000Z,4.4
2023-04-25T06:11:32.000Z,4.4
2023-04-25T06:14:03.000Z,4.5
2023-04-25T06:15:18.000Z,5.6
2023-04-25T06:16:34.000Z,4.7
2023-04-25T06:17:49.000Z,5.4
2023-04-25T06:19:04.685Z,4.3
2023-04-25T06:20:20.000Z,5.5
2023-04-25T06:21:36.000Z,4.9
2023-04-25T06:22:52.000Z,5.5
2023-04-25T06:24:09.000Z,5.6
2023-04-25T06:25:25.000Z,4.2
2023-04-25T06:26:41.000Z,3.8
2023-04-25T06:27:57.000Z,5.1
2023-04-25T06:29:13.000Z,5.4
2023-04-25T06:30:29.000Z,4.4
2023-04-25T06:31:45.000Z,4.7
2023-04-25T06:33:02.000Z,4.8
2023-04-25T06:34:18.000Z,4.3
2023-04-25T06:35:33.000Z,4.1
2023-04-25T06:36:49.705Z,5
2023-04-25T06:38:05.849Z,4.1
2023-04-25T06:39:21.000Z,4.8
2023-04-25T06:40:37.000Z,4
2023-04-25T06:41:54.000Z,4.4
2023-04-25T06:43:10.425Z,4.6
2023-04-25T06:44:25.000Z,4.3
2023-04-25T06:45:41.000Z,4.9
2023-04-25T06:46:56.000Z,4.7
2023-04-25T06:48:11.000Z,4.2
2023-04-25T06:49:27.000Z,4.4
2023-04-25T06:50:44.000Z,4.3
2023-04-25T06:52:00.500Z,4.9
2023-04-25T06:54:32.000Z,4.1
2023-04-25T06:55:48.000Z,3.7
2023-04-25T06:57:04.000Z,4.2
2023-04-25T06:58:20.000Z,3.7
2023-04-25T06:59:37.364Z,4.8
2023-04-25T07:00:53.000Z,4.5
2023-04-25T07:02:09.000Z,4
2023-04-25T07:03:25.000Z,3.5
2023-04-25T07:04:40.000Z,4
2023-04-25T07:05:57.094Z,4.1
2023-04-25T07:07:13.000Z,5.9
2023-04-25T07:08:29.000Z,4.7
2023-04-25T07:09:45.000Z,4.2
2023-04-25T07:11:01.000Z,4
2023-04-25T07:12:17.000Z,4.2
2023-04-25T07:13:33.000Z,5.1
2023-04-25T07:14:48.000Z,4.7
2023-04-25T07:16:04.000Z,4.8
2023-04-25T07:17:19.000Z,4
2023-04-25T07:18:34.000Z,4.2
2023-04-25T07:19:50.000Z,3.7
2023-04-25T07:21:06.000Z,4.7
2023-04-25T07:22:22.000Z,4.6
2023-04-25T07:23:38.000Z,4.7
2023-04-25T07:24:55.000Z,4.1
2023-04-25T07:26:11.000Z,4.4
2023-04-25T07:27:27.000Z,4.6
2023-04-25T07:28:43.000Z,4.3
2023-04-25T07:29:59.000Z,4
2023-04-25T07:31:15.000Z,4.4
2023-04-25T07:32:31.000Z,4.4
2023-04-25T07:33:48.000Z,4.2
2023-04-25T07:35:03.000Z,4.1
2023-04-25T07:36:19.000Z,3.3
2023-04-25T07:37:35.795Z,3.8
2023-04-25T07:38:51.936Z,4.6
2023-04-25T07:40:08.078Z,4.5
2023-04-25T07:41:24.000Z,4.1
2023-04-25T07:42:40.000Z,3.8
2023-04-25T07:43:55.000Z,4.2
2023-04-25T07:45:10.000Z,4
2023-04-25T07:46:25.000Z,4.3
2023-04-25T07:47:40.000Z,4.3
2023-04-25T07:48:56.000Z,4.6
2023-04-25T07:50:13.000Z,4.6
2023-04-25T07:51:29.000Z,3.9
2023-04-25T07:52:45.000Z,3.6
2023-04-25T07:54:01.000Z,4.5
2023-04-25T07:55:17.000Z,4.1
2023-04-25T07:56:33.000Z,3.8
2023-04-25T07:57:50.178Z,3.7
2023-04-25T07:59:06.000Z,4.8
2023-04-25T08:00:22.000Z,4.1
2023-04-25T08:01:38.000Z,4
2023-04-25T08:02:54.000Z,4.4
2023-04-25T08:04:09.000Z,4.1
2023-04-25T08:05:25.000Z,3.4
2023-04-25T08:06:41.000Z,3.9
2023-04-25T08:07:58.343Z,4.1
2023-04-25T08:09:14.000Z,4.7
2023-04-25T08:10:30.000Z,4.8
2023-04-25T08:11:46.000Z,4.5
2023-04-25T08:13:01.000Z,4
2023-04-25T08:14:16.000Z,4.6
2023-04-25T08:15:32.000Z,4.3
2023-04-25T08:16:47.000Z,3.9
2023-04-25T08:18:03.000Z,3.5
2023-04-25T08:19:19.000Z,4.1
2023-04-25T08:20:34.000Z,3.7
2023-04-25T08:21:50.000Z,3.3
2023-04-25T08:23:07.177Z,3.9
2023-04-25T08:24:23.000Z,4.2
2023-04-25T08:25:39.000Z,3.3
2023-04-25T08:26:55.000Z,3.6
2023-04-25T08:28:11.000Z,3.6
2023-04-25T08:29:27.000Z,4.5
2023-04-25T08:30:43.000Z,3.5
2023-04-25T08:33:16.000Z,4
2023-04-25T08:34:32.000Z,4.4
2023-04-25T08:35:48.000Z,4
2023-04-25T08:37:03.000Z,3.7
2023-04-25T08:38:19.000Z,3.2
2023-04-25T08:39:36.053Z,3.4
2023-04-25T08:40:52.204Z,3.3
2023-04-25T08:42:08.000Z,4.1
2023-04-25T08:43:23.000Z,4.1
2023-04-25T08:44:38.000Z,3.2
2023-04-25T08:45:53.000Z,3.6
2023-04-25T08:47:08.000Z,3.4
2023-04-25T08:48:24.000Z,4
2023-04-25T08:49:41.000Z,4.1
2023-04-25T08:50:57.000Z,4.6
2023-04-25T08:54:45.000Z,3.3
2023-04-25T08:56:01.000Z,3.1
2023-04-25T08:57:17.000Z,3
2023-04-25T08:58:34.000Z,3.3
2023-04-25T08:59:50.000Z,3.5
2023-04-25T09:01:06.000Z,2.9
2023-04-25T09:02:21.000Z,3.2
2023-04-25T09:03:36.000Z,2.8
2023-04-25T09:04:52.000Z,2.5
2023-04-25T09:06:08.000Z,3.8
2023-04-25T09:07:25.000Z,4
2023-04-25T09:08:41.000Z,4.4
2023-04-25T09:09:57.000Z,3.4
2023-04-25T09:11:13.000Z,4.1
2023-04-25T09:12:29.000Z,5
2023-04-25T09:13:45.000Z,3.7
2023-04-25T09:15:01.000Z,3.5
2023-04-25T09:16:17.000Z,3.9
2023-04-25T09:17:32.000Z,4.5
2023-04-25T09:18:48.000Z,4
2023-04-25T09:20:04.834Z,4.2
2023-04-25T09:21:20.000Z,3.8
2023-04-25T09:22:36.000Z,4.1
2023-04-25T09:23:53.000Z,3.9
2023-04-25T09:25:09.000Z,4.3
2023-04-25T09:26:25.000Z,4.3
2023-04-25T09:27:41.000Z,4
2023-04-25T09:28:57.000Z,3.2
2023-04-25T09:30:13.980Z,3.7
2023-04-25T09:31:29.000Z,3.7
2023-04-25T09:32:46.000Z,4.1
2023-04-25T09:34:01.000Z,3.5
2023-04-25T09:35:17.571Z,3.2
2023-04-25T09:36:33.000Z,3.2
2023-04-25T09:37:49.000Z,2.6
2023-04-25T09:39:05.000Z,2.6
2023-04-25T09:40:21.000Z,3.5
2023-04-25T09:41:38.294Z,3.4
2023-04-25T09:42:53.000Z,3
2023-04-25T09:44:09.000Z,2.9
2023-04-25T09:45:24.000Z,3
2023-04-25T09:46:40.928Z,3.8
2023-04-25T09:47:55.000Z,3.3
2023-04-25T09:49:11.000Z,3.1
2023-04-25T09:50:28.000Z,3.7
2023-04-25T09:51:44.000Z,4.1
2023-04-25T09:53:00.000Z,3.3
2023-04-25T09:54:16.800Z,3.7
2023-04-25T09:55:32.939Z,3.5
2023-04-25T09:56:48.000Z,3.7
2023-04-25T09:58:05.000Z,3.5
2023-04-25T09:59:21.000Z,3.4
2023-04-25T10:00:37.000Z,3.4
2023-04-25T10:01:53.000Z,4.2
2023-04-25T10:03:09.000Z,3.8
2023-04-25T10:04:24.000Z,4
2023-04-25T10:05:41.107Z,4.4
2023-04-25T10:06:57.000Z,3.4
2023-04-25T10:08:13.000Z,4.3
2023-04-25T10:09:29.000Z,3.6
2023-04-25T10:10:45.684Z,4.8
2023-04-25T10:12:01.000Z,4.5
2023-04-25T10:13:16.000Z,3.3
2023-04-25T10:14:31.000Z,3.3
2023-04-25T10:15:48.299Z,3.4
2023-04-25T10:17:04.000Z,4.1
2023-04-25T10:18:20.000Z,3.9
2023-04-25T10:19:36.000Z,4.3
2023-04-25T10:20:52.000Z,3.9
2023-04-25T10:22:08.000Z,4.1
2023-04-25T10:23:24.000Z,3.5
2023-04-25T10:24:41.000Z,3
2023-04-25T10:25:57.000Z,3
2023-04-25T10:27:13.000Z,2.3
2023-04-25T10:29:45.000Z,2.7
2023-04-25T10:31:00.000Z,3.2
2023-04-25T10:33:33.000Z,2.6
2023-04-25T10:34:48.000Z,2.3
2023-04-25T10:36:03.000Z,2.2
2023-04-25T10:37:19.000Z,2.4
2023-04-25T10:38:34.000Z,2.1
2023-04-25T10:39:49.000Z,2.7
2023-04-25T10:41:06.000Z,2.7
2023-04-25T10:42:22.000Z,2.7
2023-04-25T10:43:38.000Z,2.5
2023-04-25T10:44:54.000Z,2.7
2023-04-25T10:46:10.000Z,2.9
2023-04-25T10:47:26.991Z,2.3
2023-04-25T10:48:42.000Z,2.6
2023-04-25T10:49:59.000Z,2.7
2023-04-25T10:51:15.000Z,2.2
2023-04-25T10:52:30.000Z,2.2
2023-04-25T10:53:45.000Z,2.6
2023-04-25T10:55:01.000Z,3.2
2023-04-25T10:56:17.000Z,2.5
2023-04-25T10:57:33.000Z,2.9
2023-04-25T10:58:50.000Z,2.8
2023-04-25T11:00:06.000Z,2.5
2023-04-25T11:01:22.000Z,2.8
2023-04-25T11:02:38.757Z,3.6
2023-04-25T11:03:54.000Z,3.4
2023-04-25T11:05:10.000Z,3.4
2023-04-25T11:06:26.000Z,3.5
2023-04-25T11:07:43.000Z,2.9
2023-04-25T11:08:59.000Z,2.8
2023-04-25T11:10:14.000Z,3.1
2023-04-25T11:11:30.000Z,2.8
2023-04-25T11:12:46.000Z,2.3
2023-04-25T11:14:02.000Z,2.8
2023-04-25T11:15:18.000Z,2.6
2023-04-25T11:16:35.000Z,2.1
2023-04-25T11:17:51.000Z,2.5
2023-04-25T11:19:06.000Z,3.2
2023-04-25T11:20:21.000Z,3.2
2023-04-25T11:21:37.017Z,3.1
2023-04-25T11:22:51.000Z,3.3
2023-04-25T11:24:08.000Z,2.6
2023-04-25T11:25:24.000Z,3.3
2023-04-25T11:26:40.000Z,3
2023-04-25T11:27:56.000Z,3.9
2023-04-25T11:29:12.000Z,2.9
2023-04-25T11:30:28.000Z,3
2023-04-25T11:31:44.000Z,3.6
2023-04-25T11:33:01.000Z,3.1
2023-04-25T11:34:17.000Z,3.2
2023-04-25T11:35:33.000Z,3.1
2023-04-25T11:36:49.000Z,3
2023-04-25T11:38:05.000Z,3.7
2023-04-25T11:40:36.000Z,3.4
2023-04-25T11:41:53.000Z,3.3
2023-04-25T11:43:09.000Z,3.3
2023-04-25T11:44:25.000Z,2.4
2023-04-25T11:45:41.000Z,3
2023-04-25T11:46:57.000Z,2.3
2023-04-25T11:48:13.000Z,3.3
2023-04-25T11:49:29.000Z,3.8
2023-04-25T11:50:44.000Z,3.3
2023-04-25T11:51:59.000Z,3.6
2023-04-25T11:53:14.743Z,4.1
2023-04-25T11:54:30.000Z,3.8
2023-04-25T11:55:46.000Z,3.6
2023-04-25T11:57:02.000Z,3.4
2023-04-25T11:58:19.000Z,3.4
2023-04-25T11:59:35.000Z,4.4
2023-04-25T12:00:51.000Z,3.5
2023-04-25T12:02:07.000Z,3.7
2023-04-25T12:03:23.000Z,3.8
2023-04-25T12:04:39.000Z,3.6
2023-04-25T12:05:55.000Z,3.2
2023-04-25T12:07:12.346Z,3.4
2023-04-25T12:08:28.000Z,3.8
2023-04-25T12:09:43.000Z,3.3
2023-04-25T12:10:59.000Z,3.3
2023-04-25T12:12:15.000Z,4.6
2023-04-25T12:13:31.000Z,3.4
2023-04-25T12:14:47.000Z,4.3
2023-04-25T12:16:04.000Z,3.5
2023-04-25T12:17:20.000Z,3.6
2023-04-25T12:18:35.000Z,2.5
2023-04-25T12:19:50.000Z,3.1
2023-04-25T12:21:05.000Z,3
2023-04-25T12:22:20.000Z,2.5
2023-04-25T12:23:37.000Z,3
2023-04-25T12:24:53.000Z,3.2
2023-04-25T12:26:09.000Z,3.3
2023-04-25T12:27:25.000Z,2.6
2023-04-25T12:28:41.000Z,3
2023-04-25T12:29:58.053Z,3.4
2023-04-25T12:31:13.000Z,2.5
2023-04-25T12:32:30.000Z,2.7
2023-04-25T12:33:46.000Z,2.8
2023-04-25T12:35:01.000Z,3.3
2023-04-25T12:36:17.000Z,2.9
2023-04-25T12:37:33.000Z,2.9
2023-04-25T12:38:50.085Z,2.8
2023-04-25T12:40:06.000Z,3
2023-04-25T12:41:22.000Z,2.5
2023-04-25T12:42:38.000Z,3.2
2023-04-25T12:43:54.000Z,3.5
2023-04-25T12:45:10.000Z,3.4
2023-04-25T12:46:26.000Z,3.1
2023-04-25T12:47:42.125Z,3.1
2023-04-25T12:48:57.000Z,2.6
2023-04-25T12:50:12.000Z,3.1
2023-04-25T12:51:27.000Z,3.1
2023-04-25T12:52:43.000Z,2.4
2023-04-25T12:53:59.000Z,2.8
2023-04-25T12:55:15.000Z,3.4
2023-04-25T12:56:31.000Z,3.6
2023-04-25T12:57:48.000Z,3.3
2023-04-25T12:59:04.000Z,3.6
2023-04-25T13:00:20.000Z,2.7
2023-04-25T13:01:36.000Z,2.3
2023-04-25T13:02:52.000Z,3.3
2023-04-25T13:04:08.000Z,2.4
2023-04-25T13:05:24.000Z,3
2023-04-25T13:06:41.000Z,3.3
2023-04-25T13:07:56.000Z,3.5
2023-04-25T13:09:12.000Z,3.2
2023-04-25T13:10:28.000Z,3.5
2023-04-25T13:11:44.000Z,2.9
2023-04-25T13:13:00.000Z,3.6
2023-04-25T13:14:17.000Z,3.1
2023-04-25T13:15:33.000Z,3.9
2023-04-25T13:16:48.000Z,3.3
2023-04-25T13:18:03.000Z,3.4
2023-04-25T13:19:18.000Z,3.7
2023-04-25T13:20:33.000Z,2.6
2023-04-25T13:21:49.000Z,3.2
2023-04-25T13:23:06.000Z,3.3
2023-04-25T13:24:22.000Z,3.6
2023-04-25T13:25:38.000Z,3.8
2023-04-25T13:26:54.000Z,3.6
2023-04-25T13:28:10.000Z,4
2023-04-25T13:29:26.000Z,3.6
2023-04-25T13:30:42.000Z,3.7
2023-04-25T13:31:59.000Z,4.1
2023-04-25T13:33:15.000Z,3.8
2023-04-25T13:34:31.000Z,3.9
2023-04-25T13:35:47.000Z,3.6
2023-04-25T13:37:02.000Z,3.7
2023-04-25T13:38:18.000Z,3
2023-04-25T13:39:35.000Z,3.3
2023-04-25T13:40:51.000Z,3.2
2023-04-25T13:42:07.000Z,3
2023-04-25T13:43:23.000Z,2.1
2023-04-25T13:44:39.000Z,2.6
2023-04-25T13:45:54.000Z,2.7
2023-04-25T13:47:09.000Z,2.2
2023-04-25T13:48:25.000Z,3.4
2023-04-25T13:50:56.000Z,2.9
2023-04-25T13:52:12.782Z,3.2
2023-04-25T13:53:28.921Z,3.7
2023-04-25T13:54:45.070Z,2.8
2023-04-25T13:56:00.000Z,3.3
2023-04-25T13:57:17.000Z,3.2
2023-04-25T13:58:33.000Z,3.5
2023-04-25T13:59:49.000Z,3.2
2023-04-25T14:01:05.000Z,3.3
2023-04-25T14:02:21.000Z,4.3
2023-04-25T14:03:37.000Z,4.5
2023-04-25T14:04:53.000Z,3
2023-04-25T14:06:09.000Z,3.6
2023-04-25T14:07:25.530Z,3.8
2023-04-25T14:08:41.000Z,3.2
2023-04-25T14:09:57.000Z,3.4
2023-04-25T14:11:13.000Z,3.4
2023-04-25T14:12:29.000Z,3.7
2023-04-25T14:13:46.000Z,3.5
2023-04-25T14:15:02.000Z,3.2
2023-04-25T14:16:17.000Z,3.7
2023-04-25T14:17:32.000Z,3.5
2023-04-25T14:18:48.000Z,3
2023-04-25T14:20:04.000Z,3.5
2023-04-25T14:21:20.000Z,3.1
2023-04-25T14:22:37.000Z,3.2
2023-04-25T14:23:53.000Z,2.9
2023-04-25T14:25:09.000Z,3.2
2023-04-25T14:26:25.000Z,3.1
2023-04-25T14:27:41.000Z,3
2023-04-25T14:28:57.000Z,3.1
2023-04-25T14:30:13.000Z,2.9
2023-04-25T14:31:30.000Z,3.3
2023-04-25T14:32:46.000Z,3.2
2023-04-25T14:34:01.000Z,4.2
2023-04-25T14:35:17.000Z,3.3
2023-04-25T14:36:33.000Z,3.5
2023-04-25T14:37:49.000Z,4.1
2023-04-25T14:39:05.000Z,3.1
2023-04-25T14:40:22.000Z,3.6
2023-04-25T14:41:38.000Z,3.5
2023-04-25T14:42:53.000Z,3.9
2023-04-25T14:44:08.000Z,3.9
2023-04-25T14:45:24.000Z,4.2
2023-04-25T14:46:40.000Z,3.2
2023-04-25T14:47:57.000Z,3.4
2023-04-25T14:49:13.000Z,4.5
2023-04-25T14:50:29.000Z,3.3
2023-04-25T14:51:45.000Z,3.6
2023-04-25T14:53:01.000Z,3.7
2023-04-25T14:54:17.997Z,4.3
2023-04-25T14:55:33.000Z,3.3
2023-04-25T14:58:06.426Z,4.1
2023-04-25T14:59:22.000Z,3.7
2023-04-25T15:00:37.000Z,3.9
2023-04-25T15:01:53.873Z,3.4
2023-04-25T15:03:09.000Z,3.3
2023-04-25T15:04:25.000Z,3.6
2023-04-25T15:05:42.000Z,3.3
2023-04-25T15:06:58.000Z,3
2023-04-25T15:08:14.000Z,3.1
2023-04-25T15:09:30.000Z,3.4
2023-04-25T15:10:45.912Z,3.4
2023-04-25T15:12:00.000Z,3.4
2023-04-25T15:13:16.000Z,3.4
2023-04-25T15:14:31.000Z,4.3
2023-04-25T15:15:46.581Z,4
2023-04-25T15:17:01.000Z,3.1
2023-04-25T15:18:17.000Z,3.7
2023-04-25T15:19:33.000Z,3.5
2023-04-25T15:20:48.000Z,3.6
2023-04-25T15:22:04.000Z,4.2
2023-04-25T15:23:20.000Z,3.8
2023-04-25T15:24:36.000Z,2.6
2023-04-25T15:25:52.000Z,2.2
2023-04-25T15:27:08.000Z,2.5
2023-04-25T15:28:24.000Z,2.7
2023-04-25T15:29:41.000Z,3.1
2023-04-25T15:30:57.000Z,3.1
2023-04-25T15:32:13.000Z,2
2023-04-25T15:33:29.000Z,2.5
2023-04-25T15:34:45.000Z,2.7
2023-04-25T15:36:01.000Z,2.7
2023-04-25T15:37:17.000Z,2.8
2023-04-25T15:38:33.000Z,2.5
2023-04-25T15:39:49.000Z,2.8
2023-04-25T15:41:05.000Z,2.7
2023-04-25T15:42:21.000Z,2.5
2023-04-25T15:43:37.000Z,3.2
2023-04-25T15:44:53.000Z,3.3
2023-04-25T15:46:09.000Z,2.6
2023-04-25T15:47:25.000Z,3.2
2023-04-25T15:48:40.000Z,2.8
2023-04-25T15:49:56.000Z,3.6
2023-04-25T15:52:28.000Z,3
2023-04-25T15:53:43.000Z,2.3
2023-04-25T15:54:59.000Z,2.8
2023-04-25T15:57:31.000Z,2.9
2023-04-25T15:58:47.000Z,2.7
2023-04-25T16:01:19.000Z,3.1
2023-04-25T16:02:36.000Z,3.1
2023-04-25T16:03:52.000Z,3.1
2023-04-25T16:06:24.000Z,4
2023-04-25T16:07:40.000Z,3
2023-04-25T16:08:56.000Z,2.5
2023-04-25T16:10:12.000Z,2.7
2023-04-25T16:11:28.000Z,2.9
2023-04-25T16:12:43.000Z,3
2023-04-25T16:13:59.594Z,3.2
2023-04-25T16:15:15.000Z,3.4
2023-04-25T16:16:31.000Z,3.5
2023-04-25T16:17:47.000Z,4.1
2023-04-25T16:19:03.000Z,3.5
2023-04-25T16:20:20.000Z,3.1
2023-04-25T16:21:36.000Z,2.8
2023-04-25T16:22:52.000Z,3.6
2023-04-25T16:24:08.755Z,3
2023-04-25T16:25:23.000Z,2.6
2023-04-25T16:26:38.000Z,2.9
2023-04-25T16:27:55.000Z,3.1
2023-04-25T16:29:11.000Z,2.6
2023-04-25T16:30:27.000Z,3.2
2023-04-25T16:32:59.000Z,3.2
2023-04-25T16:34:15.000Z,3.2
2023-04-25T16:35:31.000Z,3.3
2023-04-25T16:36:48.000Z,2.6
2023-04-25T16:38:04.000Z,3.4
2023-04-25T16:39:20.000Z,2.5
2023-04-25T16:40:36.000Z,2.7
2023-04-25T16:41:52.000Z,3.1
2023-04-25T16:43:07.000Z,3.1
2023-04-25T16:44:23.000Z,3.3
2023-04-25T16:45:40.000Z,3.3
2023-04-25T16:46:56.000Z,2.9
2023-04-25T16:48:12.000Z,2.9
2023-04-25T16:49:27.000Z,3.2
2023-04-25T16:50:43.000Z,3
2023-04-25T16:51:59.000Z,3.6
2023-04-25T16:53:14.000Z,2.8
2023-04-25T16:54:30.000Z,3.8
2023-04-25T16:55:46.000Z,3.4
2023-04-25T16:57:02.000Z,3.3
2023-04-25T16:58:18.000Z,2.6
2023-04-25T16:59:34.000Z,3.1
2023-04-25T17:00:50.000Z,3.2
2023-04-25T17:02:07.000Z,2.5
2023-04-25T17:03:23.000Z,3.1
2023-04-25T17:04:39.000Z,2.7
2023-04-25T17:05:55.000Z,3.6
2023-04-25T17:07:11.000Z,2.4
2023-04-25T17:08:27.000Z,2
2023-04-25T17:09:43.000Z,1.9
2023-04-25T17:10:59.000Z,2
2023-04-25T17:12:15.000Z,2.2
2023-04-25T17:13:31.000Z,2.3
2023-04-25T17:14:47.000Z,2.1
2023-04-25T17:16:03.000Z,1.8
2023-04-25T17:17:19.000Z,1.9
2023-04-25T17:18:35.000Z,1.8
2023-04-25T17:19:51.000Z,1.7
2023-04-25T17:21:06.000Z,1.6
2023-04-25T17:22:21.000Z,1.9
2023-04-25T17:23:36.000Z,1.5
2023-04-25T17:24:52.000Z,1.9
2023-04-25T17:26:08.000Z,2.1
2023-04-25T17:27:25.231Z,1.5
2023-04-25T17:28:41.000Z,2.8
2023-04-25T17:29:57.519Z,1.7
2023-04-25T17:31:13.000Z,2.2
2023-04-25T17:32:29.811Z,2.1
2023-04-25T17:33:45.000Z,2.1
2023-04-25T17:35:01.000Z,1.9
2023-04-25T17:36:18.000Z,2.4
2023-04-25T17:37:34.000Z,2.6
2023-04-25T17:38:50.000Z,2.3
2023-04-25T17:40:05.000Z,2.4
2023-04-25T17:41:21.000Z,2.7
2023-04-25T17:42:37.000Z,2.3
2023-04-25T17:43:53.000Z,2.6
2023-04-25T17:45:10.273Z,2.4
2023-04-25T17:46:26.000Z,2.7
2023-04-25T17:48:58.000Z,2.5
2023-04-25T17:50:13.000Z,2.3
2023-04-25T17:51:28.000Z,2.3
2023-04-25T17:52:44.000Z,3
2023-04-25T17:54:00.000Z,2.2
2023-04-25T17:55:15.526Z,2.4
2023-04-25T17:56:31.000Z,2.7
2023-04-25T17:57:47.000Z,3
2023-04-25T17:59:03.000Z,3.4
2023-04-25T18:00:19.000Z,3.2
2023-04-25T18:01:36.000Z,3.3
2023-04-25T18:02:52.000Z,2.9